sensor_id;sensor_type;location;lat;lon;timestamp;pressure;altitude;pressure_sealevel;temperature;humidity
48402;BME280;65988;52.422;16.746;2022-12-11T00:01:11;99682.13;;;-2.18;94.88
48402;BME280;65988;52.422;16.746;2022-12-11T00:03:38;99677.88;;;-2.20;94.70
48402;BME280;65988;52.422;16.746;2022-12-11T00:06:05;99672.78;;;-2.20;94.74
48402;BME280;65988;52.422;16.746;2022-12-11T00:08:31;99705.06;;;-2.07;94.66
48402;BME280;65988;52.422;16.746;2022-12-11T00:10:56;99686.41;;;-2.14;94.75
48402;BME280;65988;52.422;16.746;2022-12-11T00:13:22;99683.09;;;-2.10;94.53
48402;BME280;65988;52.422;16.746;2022-12-11T00:15:47;99655.91;;;-2.18;94.34
48402;BME280;65988;52.422;16.746;2022-12-11T00:18:12;99656.00;;;-2.15;94.64
48402;BME280;65988;52.422;16.746;2022-12-11T00:20:39;99653.47;;;-2.14;94.69
48402;BME280;65988;52.422;16.746;2022-12-11T00:23:04;99651.72;;;-2.19;94.89
48402;BME280;65988;52.422;16.746;2022-12-11T00:25:29;99691.66;;;-2.01;94.80
48402;BME280;65988;52.422;16.746;2022-12-11T00:27:55;99685.72;;;-2.00;95.21
48402;BME280;65988;52.422;16.746;2022-12-11T00:30:20;99666.94;;;-2.18;94.87
48402;BME280;65988;52.422;16.746;2022-12-11T00:32:46;99649.19;;;-2.18;94.56
48402;BME280;65988;52.422;16.746;2022-12-11T00:35:11;99649.25;;;-2.12;94.84
48402;BME280;65988;52.422;16.746;2022-12-11T00:37:37;99651.81;;;-2.10;94.73
48402;BME280;65988;52.422;16.746;2022-12-11T00:40:05;99638.28;;;-2.12;94.59
48402;BME280;65988;52.422;16.746;2022-12-11T00:42:30;99642.59;;;-2.05;94.58
48402;BME280;65988;52.422;16.746;2022-12-11T00:44:56;99636.69;;;-2.05;94.32
48402;BME280;65988;52.422;16.746;2022-12-11T00:47:21;99627.34;;;-2.11;93.94
48402;BME280;65988;52.422;16.746;2022-12-11T00:49:47;99618.03;;;-2.11;93.88
48402;BME280;65988;52.422;16.746;2022-12-11T00:52:12;99617.06;;;-2.20;93.83
48402;BME280;65988;52.422;16.746;2022-12-11T00:54:37;99607.78;;;-2.20;93.93
48402;BME280;65988;52.422;16.746;2022-12-11T00:57:03;99632.44;;;-2.07;93.76
48402;BME280;65988;52.422;16.746;2022-12-11T00:59:28;99639.34;;;-1.96;93.88
48402;BME280;65988;52.422;16.746;2022-12-11T01:01:53;99602.66;;;-2.23;93.49
48402;BME280;65988;52.422;16.746;2022-12-11T01:04:19;99612.97;;;-2.12;93.43
48402;BME280;65988;52.422;16.746;2022-12-11T01:06:44;99622.28;;;-2.10;93.37
48402;BME280;65988;52.422;16.746;2022-12-11T01:09:09;99623.94;;;-2.12;93.19
48402;BME280;65988;52.422;16.746;2022-12-11T01:11:53;99628.31;;;-2.01;92.87
48402;BME280;65988;52.422;16.746;2022-12-11T01:14:19;99611.28;;;-2.10;92.54
48402;BME280;65988;52.422;16.746;2022-12-11T01:16:44;99590.06;;;-2.18;92.50
48402;BME280;65988;52.422;16.746;2022-12-11T01:19:10;99622.47;;;-1.96;92.34
48402;BME280;65988;52.422;16.746;2022-12-11T01:21:35;99572.16;;;-2.32;91.93
48402;BME280;65988;52.422;16.746;2022-12-11T01:24:00;99609.69;;;-2.03;91.74
48402;BME280;65988;52.422;16.746;2022-12-11T01:26:26;99580.00;;;-2.15;91.65
48402;BME280;65988;52.422;16.746;2022-12-11T01:28:51;99609.78;;;-1.96;91.76
48402;BME280;65988;52.422;16.746;2022-12-11T01:31:18;99572.38;;;-2.15;91.70
48402;BME280;65988;52.422;16.746;2022-12-11T01:33:44;99576.53;;;-2.22;91.58
48402;BME280;65988;52.422;16.746;2022-12-11T01:36:14;99585.03;;;-2.17;91.73
48402;BME280;65988;52.422;16.746;2022-12-11T01:38:39;99569.84;;;-2.15;91.29
48402;BME280;65988;52.422;16.746;2022-12-11T01:41:05;99573.25;;;-2.12;91.02
48402;BME280;65988;52.422;16.746;2022-12-11T01:43:31;99566.56;;;-2.10;91.28
48402;BME280;65988;52.422;16.746;2022-12-11T01:45:56;99564.78;;;-2.15;91.31
48402;BME280;65988;52.422;16.746;2022-12-11T01:48:28;99580.88;;;-2.10;91.20
48402;BME280;65988;52.422;16.746;2022-12-11T01:50:57;99569.84;;;-2.17;91.13
48402;BME280;65988;52.422;16.746;2022-12-11T01:53:27;99606.41;;;-1.95;91.17
48402;BME280;65988;52.422;16.746;2022-12-11T01:55:54;99596.28;;;-1.93;91.19
48402;BME280;65988;52.422;16.746;2022-12-11T01:58:25;99574.97;;;-2.11;91.12
48402;BME280;65988;52.422;16.746;2022-12-11T02:00:52;99557.09;;;-2.23;90.72
48402;BME280;65988;52.422;16.746;2022-12-11T02:03:18;99597.13;;;-1.96;90.88
48402;BME280;65988;52.422;16.746;2022-12-11T02:05:43;99580.97;;;-2.04;90.93
48402;BME280;65988;52.422;16.746;2022-12-11T02:08:09;99558.09;;;-2.07;90.35
48402;BME280;65988;52.422;16.746;2022-12-11T02:11:09;99549.63;;;-2.11;89.89
48402;BME280;65988;52.422;16.746;2022-12-11T02:13:48;99545.47;;;-2.05;89.85
48402;BME280;65988;52.422;16.746;2022-12-11T02:16:25;99531.00;;;-2.13;89.80
48402;BME280;65988;52.422;16.746;2022-12-11T02:19:01;99537.00;;;-2.09;89.98
48402;BME280;65988;52.422;16.746;2022-12-11T02:21:42;99564.03;;;-2.07;90.19
48402;BME280;65988;52.422;16.746;2022-12-11T02:24:23;99575.22;;;-1.89;90.01
48402;BME280;65988;52.422;16.746;2022-12-11T02:29:49;99552.22;;;-2.06;89.65
48402;BME280;65988;52.422;16.746;2022-12-11T02:32:24;99533.59;;;-2.11;89.25
48402;BME280;65988;52.422;16.746;2022-12-11T02:35:05;99553.25;;;-1.90;89.35
48402;BME280;65988;52.422;16.746;2022-12-11T02:37:35;99534.56;;;-2.01;89.32
48402;BME280;65988;52.422;16.746;2022-12-11T02:40:05;99555.72;;;-1.95;89.54
48402;BME280;65988;52.422;16.746;2022-12-11T02:42:32;99520.94;;;-2.10;89.21
48402;BME280;65988;52.422;16.746;2022-12-11T02:45:00;99540.47;;;-2.01;89.33
48402;BME280;65988;52.422;16.746;2022-12-11T02:47:28;99540.44;;;-2.04;89.23
48402;BME280;65988;52.422;16.746;2022-12-11T02:49:58;99574.47;;;-1.82;89.11
48402;BME280;65988;52.422;16.746;2022-12-11T02:52:25;99551.53;;;-1.93;88.88
48402;BME280;65988;52.422;16.746;2022-12-11T02:54:54;99534.56;;;-2.00;89.15
48402;BME280;65988;52.422;16.746;2022-12-11T02:57:26;99522.63;;;-2.09;89.40
48402;BME280;65988;52.422;16.746;2022-12-11T02:59:53;99535.41;;;-1.99;89.12
48402;BME280;65988;52.422;16.746;2022-12-11T03:02:18;99558.34;;;-1.90;89.43
48402;BME280;65988;52.422;16.746;2022-12-11T03:04:44;99535.44;;;-1.96;89.05
48402;BME280;65988;52.422;16.746;2022-12-11T03:07:16;99538.78;;;-2.00;89.22
48402;BME280;65988;52.422;16.746;2022-12-11T03:09:45;99518.44;;;-2.07;89.05
48402;BME280;65988;52.422;16.746;2022-12-11T03:12:14;99543.13;;;-1.92;88.80
48402;BME280;65988;52.422;16.746;2022-12-11T03:14:41;99532.81;;;-2.05;88.88
48402;BME280;65988;52.422;16.746;2022-12-11T03:17:14;99516.59;;;-2.18;89.06
48402;BME280;65988;52.422;16.746;2022-12-11T03:19:48;99538.69;;;-2.10;88.94
48402;BME280;65988;52.422;16.746;2022-12-11T03:22:28;99536.16;;;-2.10;88.88
48402;BME280;65988;52.422;16.746;2022-12-11T03:28:17;99527.69;;;-2.10;88.70
48402;BME280;65988;52.422;16.746;2022-12-11T03:30:44;99516.69;;;-2.12;88.47
48402;BME280;65988;52.422;16.746;2022-12-11T03:33:14;99526.06;;;-2.05;88.46
48402;BME280;65988;52.422;16.746;2022-12-11T03:35:48;99545.56;;;-1.98;88.44
48402;BME280;65988;52.422;16.746;2022-12-11T03:38:23;99545.50;;;-2.04;88.21
48402;BME280;65988;52.422;16.746;2022-12-11T03:40:59;99527.59;;;-2.18;88.32
48402;BME280;65988;52.422;16.746;2022-12-11T03:43:28;99529.31;;;-2.17;88.19
48402;BME280;65988;52.422;16.746;2022-12-11T03:45:55;99513.22;;;-2.20;87.74
48402;BME280;65988;52.422;16.746;2022-12-11T03:48:24;99516.69;;;-2.12;87.66
48402;BME280;65988;52.422;16.746;2022-12-11T03:50:51;99548.97;;;-1.96;87.77
48402;BME280;65988;52.422;16.746;2022-12-11T03:53:17;99532.84;;;-2.02;87.99
48402;BME280;65988;52.422;16.746;2022-12-11T03:55:45;99523.47;;;-2.10;88.12
48402;BME280;65988;52.422;16.746;2022-12-11T03:58:12;99516.69;;;-2.14;87.97
48402;BME280;65988;52.422;16.746;2022-12-11T04:00:38;99524.44;;;-2.00;87.73
48402;BME280;65988;52.422;16.746;2022-12-11T04:03:03;99485.31;;;-2.24;87.78
48402;BME280;65988;52.422;16.746;2022-12-11T04:05:42;99510.75;;;-2.13;87.69
48402;BME280;65988;52.422;16.746;2022-12-11T04:08:08;99484.41;;;-2.27;87.56
48402;BME280;65988;52.422;16.746;2022-12-11T04:10:33;99524.31;;;-2.09;87.83
48402;BME280;65988;52.422;16.746;2022-12-11T04:12:58;99528.53;;;-2.10;87.36
48402;BME280;65988;52.422;16.746;2022-12-11T04:15:24;99519.19;;;-2.15;87.48
48402;BME280;65988;52.422;16.746;2022-12-11T04:17:49;99516.69;;;-2.11;87.69
48402;BME280;65988;52.422;16.746;2022-12-11T04:20:36;99509.03;;;-2.17;87.49
48402;BME280;65988;52.422;16.746;2022-12-11T04:23:20;99518.44;;;-2.07;87.39
48402;BME280;65988;52.422;16.746;2022-12-11T04:26:09;99504.00;;;-2.14;87.20
48402;BME280;65988;52.422;16.746;2022-12-11T04:28:36;99517.66;;;-2.02;87.38
48402;BME280;65988;52.422;16.746;2022-12-11T04:31:02;99500.66;;;-2.11;87.24
48402;BME280;65988;52.422;16.746;2022-12-11T04:33:28;99505.75;;;-2.08;87.56
48402;BME280;65988;52.422;16.746;2022-12-11T04:35:53;99476.91;;;-2.21;86.97
48402;BME280;65988;52.422;16.746;2022-12-11T04:38:18;99478.66;;;-2.17;86.88
48402;BME280;65988;52.422;16.746;2022-12-11T04:40:44;99460.00;;;-2.22;86.82
48402;BME280;65988;52.422;16.746;2022-12-11T04:43:09;99467.66;;;-2.17;86.76
48402;BME280;65988;52.422;16.746;2022-12-11T04:45:35;99480.44;;;-2.07;86.71
48402;BME280;65988;52.422;16.746;2022-12-11T04:48:00;99440.69;;;-2.14;86.54
48402;BME280;65988;52.422;16.746;2022-12-11T04:50:28;99428.81;;;-2.18;86.69
48402;BME280;65988;52.422;16.746;2022-12-11T04:52:54;99460.19;;;-2.03;86.48
48402;BME280;65988;52.422;16.746;2022-12-11T04:55:19;99440.69;;;-2.11;86.46
48402;BME280;65988;52.422;16.746;2022-12-11T04:57:45;99445.75;;;-2.12;86.44
48402;BME280;65988;52.422;16.746;2022-12-11T05:00:11;99455.97;;;-2.03;86.24
48402;BME280;65988;52.422;16.746;2022-12-11T05:02:38;99431.38;;;-2.12;86.23
48402;BME280;65988;52.422;16.746;2022-12-11T05:05:04;99421.22;;;-2.15;86.11
48402;BME280;65988;52.422;16.746;2022-12-11T05:07:30;99435.75;;;-1.98;85.64
48402;BME280;65988;52.422;16.746;2022-12-11T05:09:55;99402.69;;;-2.14;85.56
48402;BME280;65988;52.422;16.746;2022-12-11T05:12:21;99390.81;;;-2.18;85.29
48402;BME280;65988;52.422;16.746;2022-12-11T05:14:46;99428.19;;;-1.95;85.27
48402;BME280;65988;52.422;16.746;2022-12-11T05:17:11;99418.88;;;-1.96;85.02
48402;BME280;65988;52.422;16.746;2022-12-11T05:19:37;99385.00;;;-2.08;84.84
48402;BME280;65988;52.422;16.746;2022-12-11T05:22:03;99349.41;;;-2.20;84.00
48402;BME280;65988;52.422;16.746;2022-12-11T05:24:28;99335.00;;;-2.24;84.17
48402;BME280;65988;52.422;16.746;2022-12-11T05:26:53;99332.59;;;-2.13;83.38
48402;BME280;65988;52.422;16.746;2022-12-11T05:29:18;99314.03;;;-2.11;83.09
48402;BME280;65988;52.422;16.746;2022-12-11T05:31:44;99309.84;;;-2.05;82.93
48402;BME280;65988;52.422;16.746;2022-12-11T05:34:09;99328.47;;;-1.97;82.94
48402;BME280;65988;52.422;16.746;2022-12-11T05:36:34;99333.63;;;-1.91;82.91
48402;BME280;65988;52.422;16.746;2022-12-11T05:39:01;99325.91;;;-2.02;83.26
48402;BME280;65988;52.422;16.746;2022-12-11T05:41:28;99329.38;;;-1.94;83.01
48402;BME280;65988;52.422;16.746;2022-12-11T05:43:54;99334.41;;;-1.97;82.86
48402;BME280;65988;52.422;16.746;2022-12-11T05:46:22;99349.69;;;-1.87;83.39
48402;BME280;65988;52.422;16.746;2022-12-11T05:48:50;99347.19;;;-1.86;83.18
48402;BME280;65988;52.422;16.746;2022-12-11T05:51:16;99364.16;;;-1.76;83.23
48402;BME280;65988;52.422;16.746;2022-12-11T05:53:42;99358.13;;;-1.90;83.18
48402;BME280;65988;52.422;16.746;2022-12-11T05:56:17;99347.13;;;-1.92;83.29
48402;BME280;65988;52.422;16.746;2022-12-11T05:58:44;99395.47;;;-1.69;83.45
48402;BME280;65988;52.422;16.746;2022-12-11T06:01:14;99371.66;;;-1.88;83.58
48402;BME280;65988;52.422;16.746;2022-12-11T06:03:40;99378.41;;;-1.88;83.89
48402;BME280;65988;52.422;16.746;2022-12-11T06:06:06;99389.47;;;-1.82;83.66
48402;BME280;65988;52.422;16.746;2022-12-11T06:08:31;99371.66;;;-1.83;83.73
48402;BME280;65988;52.422;16.746;2022-12-11T06:10:57;99391.19;;;-1.76;83.64
48402;BME280;65988;52.422;16.746;2022-12-11T06:13:28;99380.13;;;-1.86;83.59
48402;BME280;65988;52.422;16.746;2022-12-11T06:15:54;99411.53;;;-1.65;83.63
48402;BME280;65988;52.422;16.746;2022-12-11T06:18:19;99384.34;;;-1.85;83.49
48402;BME280;65988;52.422;16.746;2022-12-11T06:20:47;99391.13;;;-1.84;83.79
48402;BME280;65988;52.422;16.746;2022-12-11T06:23:12;99381.78;;;-1.88;83.53
48402;BME280;65988;52.422;16.746;2022-12-11T06:25:38;99369.91;;;-1.94;83.11
48402;BME280;65988;52.422;16.746;2022-12-11T06:28:04;99389.50;;;-1.76;83.41
48402;BME280;65988;52.422;16.746;2022-12-11T06:30:29;99408.16;;;-1.67;83.34
48402;BME280;65988;52.422;16.746;2022-12-11T06:32:57;99391.16;;;-1.78;83.61
48402;BME280;65988;52.422;16.746;2022-12-11T06:35:22;99407.25;;;-1.74;83.76
48402;BME280;65988;52.422;16.746;2022-12-11T06:37:50;99409.72;;;-1.82;84.15
48402;BME280;65988;52.422;16.746;2022-12-11T06:40:27;99414.94;;;-1.66;83.84
48402;BME280;65988;52.422;16.746;2022-12-11T06:42:57;99414.03;;;-1.73;83.75
48402;BME280;65988;52.422;16.746;2022-12-11T06:45:22;99396.94;;;-1.94;84.06
48402;BME280;65988;52.422;16.746;2022-12-11T06:47:47;99394.41;;;-1.96;84.26
48402;BME280;65988;52.422;16.746;2022-12-11T06:50:13;99419.78;;;-1.88;84.38
48402;BME280;65988;52.422;16.746;2022-12-11T06:52:38;99399.34;;;-2.07;84.39
48402;BME280;65988;52.422;16.746;2022-12-11T06:55:04;99404.41;;;-2.11;84.50
48402;BME280;65988;52.422;16.746;2022-12-11T06:57:32;99421.38;;;-1.99;84.44
48402;BME280;65988;52.422;16.746;2022-12-11T06:59:58;99405.19;;;-2.15;84.35
48402;BME280;65988;52.422;16.746;2022-12-11T07:02:24;99400.16;;;-2.14;84.63
48402;BME280;65988;52.422;16.746;2022-12-11T07:04:49;99411.16;;;-2.09;84.79
48402;BME280;65988;52.422;16.746;2022-12-11T07:07:17;99428.09;;;-2.04;84.87
48402;BME280;65988;52.422;16.746;2022-12-11T07:09:44;99390.81;;;-2.19;84.41
48402;BME280;65988;52.422;16.746;2022-12-11T07:12:09;99407.00;;;-2.02;83.91
48402;BME280;65988;52.422;16.746;2022-12-11T07:14:34;99361.25;;;-2.19;83.25
48402;BME280;65988;52.422;16.746;2022-12-11T07:17:00;99372.34;;;-2.04;83.27
48402;BME280;65988;52.422;16.746;2022-12-11T07:19:25;99357.09;;;-2.11;83.24
48402;BME280;65988;52.422;16.746;2022-12-11T07:21:51;99370.63;;;-2.07;83.16
48402;BME280;65988;52.422;16.746;2022-12-11T07:24:21;99377.34;;;-2.12;83.57
48402;BME280;65988;52.422;16.746;2022-12-11T07:26:48;99371.31;;;-2.27;83.50
48402;BME280;65988;52.422;16.746;2022-12-11T07:29:16;99411.94;;;-2.13;83.94
48402;BME280;65988;52.422;16.746;2022-12-11T07:31:53;99412.78;;;-2.17;84.18
48402;BME280;65988;52.422;16.746;2022-12-11T07:34:26;99455.22;;;-1.96;84.21
48402;BME280;65988;52.422;16.746;2022-12-11T07:36:51;99432.28;;;-2.10;84.26
48402;BME280;65988;52.422;16.746;2022-12-11T07:39:17;99433.16;;;-2.04;84.13
48402;BME280;65988;52.422;16.746;2022-12-11T07:41:42;99407.72;;;-2.17;83.91
48402;BME280;65988;52.422;16.746;2022-12-11T07:44:07;99407.66;;;-2.20;83.82
48402;BME280;65988;52.422;16.746;2022-12-11T07:46:36;99407.63;;;-2.23;83.56
48402;BME280;65988;52.422;16.746;2022-12-11T07:49:10;99400.88;;;-2.22;83.33
48402;BME280;65988;52.422;16.746;2022-12-11T07:51:36;99394.97;;;-2.21;83.18
48402;BME280;65988;52.422;16.746;2022-12-11T07:54:12;99409.41;;;-2.13;82.92
48402;BME280;65988;52.422;16.746;2022-12-11T07:56:45;99376.38;;;-2.27;82.80
48402;BME280;65988;52.422;16.746;2022-12-11T07:59:17;99377.25;;;-2.21;82.75
48402;BME280;65988;52.422;16.746;2022-12-11T08:01:43;99340.81;;;-2.37;82.23
48402;BME280;65988;52.422;16.746;2022-12-11T08:04:16;99342.44;;;-2.43;81.94
48402;BME280;65988;52.422;16.746;2022-12-11T08:06:44;99343.34;;;-2.36;81.84
48402;BME280;65988;52.422;16.746;2022-12-11T08:09:12;99311.16;;;-2.48;81.73
48402;BME280;65988;52.422;16.746;2022-12-11T08:11:40;99322.19;;;-2.43;81.67
48402;BME280;65988;52.422;16.746;2022-12-11T08:14:06;99323.13;;;-2.33;81.24
48402;BME280;65988;52.422;16.746;2022-12-11T08:16:33;99331.63;;;-2.25;81.37
48402;BME280;65988;52.422;16.746;2022-12-11T08:19:08;99321.50;;;-2.26;81.45
48402;BME280;65988;52.422;16.746;2022-12-11T08:21:37;99308.03;;;-2.22;80.54
48402;BME280;65988;52.422;16.746;2022-12-11T08:24:02;99280.97;;;-2.28;80.62
48402;BME280;65988;52.422;16.746;2022-12-11T08:26:29;99269.13;;;-2.30;80.52
48402;BME280;65988;52.422;16.746;2022-12-11T08:28:55;99275.09;;;-2.22;80.03
48402;BME280;65988;52.422;16.746;2022-12-11T08:31:22;99280.22;;;-2.13;80.31
48402;BME280;65988;52.422;16.746;2022-12-11T08:33:51;99266.69;;;-2.21;80.30
48402;BME280;65988;52.422;16.746;2022-12-11T08:36:19;99264.09;;;-2.22;80.27
48402;BME280;65988;52.422;16.746;2022-12-11T08:38:45;99259.03;;;-2.24;80.28
48402;BME280;65988;52.422;16.746;2022-12-11T08:41:19;99265.78;;;-2.25;80.17
48402;BME280;65988;52.422;16.746;2022-12-11T08:43:45;99253.94;;;-2.26;80.38
48402;BME280;65988;52.422;16.746;2022-12-11T08:46:12;99280.28;;;-2.05;80.13
48402;BME280;65988;52.422;16.746;2022-12-11T08:48:39;99277.72;;;-2.11;80.22
48402;BME280;65988;52.422;16.746;2022-12-11T08:51:07;99296.41;;;-1.98;80.02
48402;BME280;65988;52.422;16.746;2022-12-11T08:53:35;99265.88;;;-2.17;80.24
48402;BME280;65988;52.422;16.746;2022-12-11T08:56:11;99293.16;;;-1.80;79.93
48402;BME280;65988;52.422;16.746;2022-12-11T08:58:36;99288.03;;;-1.83;79.69
48402;BME280;65988;52.422;16.746;2022-12-11T09:01:12;99285.53;;;-1.82;79.81
48402;BME280;65988;52.422;16.746;2022-12-11T09:03:38;99244.69;;;-2.24;79.69
48402;BME280;65988;52.422;16.746;2022-12-11T09:06:13;99307.47;;;-1.82;79.90
48402;BME280;65988;52.422;16.746;2022-12-11T09:08:41;99244.75;;;-2.16;79.75
48402;BME280;65988;52.422;16.746;2022-12-11T09:11:12;99279.59;;;-1.84;79.73
48402;BME280;65988;52.422;16.746;2022-12-11T09:13:43;99294.09;;;-1.60;79.57
48402;BME280;65988;52.422;16.746;2022-12-11T09:16:12;99305.19;;;-1.44;79.72
48402;BME280;65988;52.422;16.746;2022-12-11T09:18:38;99295.13;;;-1.28;79.33
48402;BME280;65988;52.422;16.746;2022-12-11T09:21:10;99226.38;;;-1.79;79.02
48402;BME280;65988;52.422;16.746;2022-12-11T09:23:38;99242.56;;;-1.60;78.85
48402;BME280;65988;52.422;16.746;2022-12-11T09:26:12;99278.22;;;-1.26;78.81
48402;BME280;65988;52.422;16.746;2022-12-11T09:28:39;99216.38;;;-1.58;78.45
48402;BME280;65988;52.422;16.746;2022-12-11T09:31:17;99263.81;;;-1.36;78.78
48402;BME280;65988;52.422;16.746;2022-12-11T09:33:45;99210.47;;;-1.55;78.54
48402;BME280;65988;52.422;16.746;2022-12-11T09:36:11;99236.69;;;-1.53;78.74
48402;BME280;65988;52.422;16.746;2022-12-11T09:38:38;99239.25;;;-1.47;78.67
48402;BME280;65988;52.422;16.746;2022-12-11T09:41:38;99258.78;;;-1.27;78.92
48402;BME280;65988;52.422;16.746;2022-12-11T09:44:15;99229.13;;;-1.36;78.67
48402;BME280;65988;52.422;16.746;2022-12-11T09:46:43;99236.75;;;-1.36;78.61
48402;BME280;65988;52.422;16.746;2022-12-11T09:49:27;99271.53;;;-1.13;79.02
48402;BME280;65988;52.422;16.746;2022-12-11T09:52:04;99241.00;;;-1.30;78.82
48402;BME280;65988;52.422;16.746;2022-12-11T09:54:30;99243.53;;;-1.32;78.73
48402;BME280;65988;52.422;16.746;2022-12-11T10:00:11;99263.00;;;-1.29;79.02
48402;BME280;65988;52.422;16.746;2022-12-11T10:05:33;99268.00;;;-1.39;79.39
48402;BME280;65988;52.422;16.746;2022-12-11T10:13:49;99227.34;;;-1.65;79.48
48402;BME280;65988;52.422;16.746;2022-12-11T10:19:30;99276.50;;;-1.29;79.71
48402;BME280;65988;52.422;16.746;2022-12-11T10:22:01;99242.41;;;-1.88;80.01
48402;BME280;65988;52.422;16.746;2022-12-11T10:24:33;99302.75;;;-1.30;80.05
48402;BME280;65988;52.422;16.746;2022-12-11T10:27:15;99284.97;;;-1.31;80.08
48402;BME280;65988;52.422;16.746;2022-12-11T10:29:45;99292.66;;;-1.14;79.91
48402;BME280;65988;52.422;16.746;2022-12-11T10:32:24;99251.13;;;-1.43;80.00
48402;BME280;65988;52.422;16.746;2022-12-11T10:34:58;99250.31;;;-1.34;79.96
48402;BME280;65988;52.422;16.746;2022-12-11T10:37:25;99234.25;;;-1.22;79.47
48402;BME280;65988;52.422;16.746;2022-12-11T10:39:50;99242.69;;;-1.32;80.22
48402;BME280;65988;52.422;16.746;2022-12-11T10:42:19;99257.97;;;-1.17;79.66
48402;BME280;65988;52.422;16.746;2022-12-11T10:45:05;99274.91;;;-1.10;79.80
48402;BME280;65988;52.422;16.746;2022-12-11T10:47:32;99219.81;;;-1.46;79.81
48402;BME280;65988;52.422;16.746;2022-12-11T10:50:02;99246.88;;;-1.39;80.26
48402;BME280;65988;52.422;16.746;2022-12-11T10:52:34;99282.47;;;-1.25;80.48
48402;BME280;65988;52.422;16.746;2022-12-11T10:55:14;99268.88;;;-1.43;80.61
48402;BME280;65988;52.422;16.746;2022-12-11T10:57:43;99265.41;;;-1.56;81.08
48402;BME280;65988;52.422;16.746;2022-12-11T11:00:31;99301.91;;;-1.27;81.04
48402;BME280;65988;52.422;16.746;2022-12-11T11:02:57;99268.13;;;-1.20;80.83
48402;BME280;65988;52.422;16.746;2022-12-11T11:05:30;99290.13;;;-1.14;81.12
48402;BME280;65988;52.422;16.746;2022-12-11T11:08:18;99263.88;;;-1.18;80.91
48402;BME280;65988;52.422;16.746;2022-12-11T11:13:23;99268.13;;;-1.14;81.24
48402;BME280;65988;52.422;16.746;2022-12-11T11:16:01;99252.91;;;-1.17;81.23
48402;BME280;65988;52.422;16.746;2022-12-11T11:18:33;99277.50;;;-0.96;81.15
48402;BME280;65988;52.422;16.746;2022-12-11T11:20:59;99257.97;;;-1.18;81.33
48402;BME280;65988;52.422;16.746;2022-12-11T11:23:25;99240.16;;;-1.26;81.48
48402;BME280;65988;52.422;16.746;2022-12-11T11:25:55;99239.38;;;-1.10;80.91
48402;BME280;65988;52.422;16.746;2022-12-11T11:28:34;99218.22;;;-1.21;80.86
48402;BME280;65988;52.422;16.746;2022-12-11T11:31:10;99231.78;;;-1.04;80.62
48402;BME280;65988;52.422;16.746;2022-12-11T11:33:48;99217.41;;;-1.06;80.64
48402;BME280;65988;52.422;16.746;2022-12-11T11:36:22;99219.09;;;-1.11;80.84
48402;BME280;65988;52.422;16.746;2022-12-11T11:41:36;99193.75;;;-1.00;80.34
48402;BME280;65988;52.422;16.746;2022-12-11T11:44:10;99221.66;;;-0.93;80.15
48402;BME280;65988;52.422;16.746;2022-12-11T11:46:43;99183.53;;;-1.22;80.16
48402;BME280;65988;52.422;16.746;2022-12-11T11:52:00;99165.81;;;-1.17;80.09
48402;BME280;65988;52.422;16.746;2022-12-11T11:54:34;99160.72;;;-1.13;79.74
48402;BME280;65988;52.422;16.746;2022-12-11T11:57:10;99183.63;;;-0.85;79.51
48402;BME280;65988;52.422;16.746;2022-12-11T11:59:44;99131.97;;;-0.84;78.80
48402;BME280;65988;52.422;16.746;2022-12-11T12:02:16;99129.44;;;-0.72;78.48
48402;BME280;65988;52.422;16.746;2022-12-11T12:04:43;99126.09;;;-0.74;78.48
48402;BME280;65988;52.422;16.746;2022-12-11T12:16:28;99033.78;;;-0.53;76.59
48402;BME280;65988;52.422;16.746;2022-12-11T12:19:31;99036.25;;;-0.26;76.21
48402;BME280;65988;52.422;16.746;2022-12-11T12:22:12;98985.47;;;-0.36;75.38
48402;BME280;65988;52.422;16.746;2022-12-11T12:25:02;98930.50;;;-0.54;75.07
48402;BME280;65988;52.422;16.746;2022-12-11T12:36:16;98903.28;;;-0.21;73.22
48402;BME280;65988;52.422;16.746;2022-12-11T12:38:52;98871.94;;;-0.23;73.21
48402;BME280;65988;52.422;16.746;2022-12-11T12:41:47;98874.59;;;-0.44;73.22
48402;BME280;65988;52.422;16.746;2022-12-11T12:44:17;98910.91;;;-0.22;73.11
48402;BME280;65988;52.422;16.746;2022-12-11T12:47:04;98917.72;;;-0.29;73.37
48402;BME280;65988;52.422;16.746;2022-12-11T12:51:57;98942.19;;;-0.15;73.49
48402;BME280;65988;52.422;16.746;2022-12-11T12:54:26;98941.41;;;-0.28;73.78
48402;BME280;65988;52.422;16.746;2022-12-11T12:56:53;98931.34;;;-0.50;73.97
48402;BME280;65988;52.422;16.746;2022-12-11T12:59:24;98949.09;;;-0.38;73.89
48402;BME280;65988;52.422;16.746;2022-12-11T13:01:53;98973.59;;;-0.30;74.20
48402;BME280;65988;52.422;16.746;2022-12-11T13:04:33;98979.53;;;-0.30;74.14
48402;BME280;65988;52.422;16.746;2022-12-11T13:07:10;98978.66;;;-0.26;74.14
48402;BME280;65988;52.422;16.746;2022-12-11T13:09:36;98965.16;;;-0.34;73.98
48402;BME280;65988;52.422;16.746;2022-12-11T13:12:14;98996.53;;;-0.55;74.55
48402;BME280;65988;52.422;16.746;2022-12-11T13:14:40;98988.06;;;-0.49;74.32
48402;BME280;65988;52.422;16.746;2022-12-11T13:17:36;98981.34;;;-0.71;74.78
48402;BME280;65988;52.422;16.746;2022-12-11T13:20:15;98997.47;;;-0.82;74.91
48402;BME280;65988;52.422;16.746;2022-12-11T13:23:18;99050.75;;;-0.70;75.47
48402;BME280;65988;52.422;16.746;2022-12-11T13:25:55;99043.16;;;-0.79;75.82
48402;BME280;65988;52.422;16.746;2022-12-11T13:28:28;99069.34;;;-0.60;75.79
48402;BME280;65988;52.422;16.746;2022-12-11T13:31:06;99092.22;;;-0.65;76.32
48402;BME280;65988;52.422;16.746;2022-12-11T13:33:49;99094.75;;;-0.68;76.38
48402;BME280;65988;52.422;16.746;2022-12-11T13:36:35;99090.53;;;-0.77;76.71
48402;BME280;65988;52.422;16.746;2022-12-11T13:39:05;99116.75;;;-0.73;77.03
48402;BME280;65988;52.422;16.746;2022-12-11T13:41:36;99120.16;;;-0.83;77.35
48402;BME280;65988;52.422;16.746;2022-12-11T13:44:04;99123.56;;;-0.78;77.57
48402;BME280;65988;52.422;16.746;2022-12-11T13:46:34;99156.53;;;-0.69;77.92
48402;BME280;65988;52.422;16.746;2022-12-11T13:49:06;99159.06;;;-0.64;78.12
48402;BME280;65988;52.422;16.746;2022-12-11T13:51:33;99197.16;;;-0.58;78.61
48402;BME280;65988;52.422;16.746;2022-12-11T13:54:05;99165.00;;;-0.75;78.74